Coober Pedy, Australia
Current Conditions -  °F | °C
As of 4:00 AM on Friday 31 Oct 2014 (Local Time) from YCBP Reporting Station
Clear Clear  
Wind Chill: 73°   Ceiling: Unl
Heat Index: 73°   Visibility: NA
Dew Point: 54°   Wind: 12mph
Humidity: 50%   Direction: 280°W
Pressure: 29.74"   Gusts: NA
Location:  29.01°S, 134.75°E
Report Text: YCBP 301800Z AUTO 28010KT //// // NCD 23/12 Q1007
Loading
Personal Weather Stations






























Interactive Weather Map
Tropical Storm Tracking
New forecast layout! Learn more

10-Day Weather Forecast

Advertisements
Track Severe Weather on mobile